KMGY

Dayton-Wright Brothers Airport

Dayton, Ohio, USA
METAR KMGY 161353Z AUTO 20011KT 10SM CLR 01/M04 A3004 RMK AO2 SLP182 T00061039
Observed Flight Rules
Dec-16 @ 13:53 UTC (an hour ago) Visual Flight Rules
Wind Visibility Clouds
200° at 11 knots 10 miles
  • Clear skies
Temperatures Readings
Current 1°C / 34°F
Dewpoint -4°C / 25°F
Humidity 70%
Altimeter 30.04" Hg
Pressure 1018.2 hPa
Elevation 289
METAR KMGY 161353Z AUTO 20011KT 10SM CLR 01/M04 A3004 RMK AO2 SLP182 T00061039
Observed Flight Rules
Dec-16 @ 13:53 UTC
(an hour ago)
VFR
Wind Visibility
200° at 11 knots 10 miles
Clouds
  • Clear skies
Temperature Dewpoint
1°C / 34°F -4°C / 25°F
Humidity Altimeter Pressure
70% 30.04" Hg 1018.2 hPa